sensor_id;sensor_type;location;lat;lon;timestamp;P1;durP1;ratioP1;P2;durP2;ratioP2
60502;SDS011;51448;51.660;5.824;2022-07-15T00:00:18;11.00;;;2.92;;
60502;SDS011;51448;51.660;5.824;2022-07-15T00:02:46;8.30;;;2.67;;
60502;SDS011;51448;51.660;5.824;2022-07-15T00:05:14;6.75;;;2.65;;
60502;SDS011;51448;51.660;5.824;2022-07-15T00:07:42;10.60;;;3.10;;
60502;SDS011;51448;51.660;5.824;2022-07-15T00:10:09;9.10;;;2.50;;
60502;SDS011;51448;51.660;5.824;2022-07-15T00:12:50;8.48;;;2.38;;
60502;SDS011;51448;51.660;5.824;2022-07-15T00:15:27;11.38;;;2.95;;
60502;SDS011;51448;51.660;5.824;2022-07-15T00:17:57;9.07;;;2.38;;
60502;SDS011;51448;51.660;5.824;2022-07-15T00:20:29;7.75;;;2.45;;
60502;SDS011;51448;51.660;5.824;2022-07-15T00:23:04;9.48;;;2.70;;
60502;SDS011;51448;51.660;5.824;2022-07-15T00:25:34;9.35;;;2.92;;
60502;SDS011;51448;51.660;5.824;2022-07-15T00:28:03;8.00;;;2.83;;
60502;SDS011;51448;51.660;5.824;2022-07-15T00:30:34;10.80;;;2.53;;
60502;SDS011;51448;51.660;5.824;2022-07-15T00:33:05;9.82;;;2.72;;
60502;SDS011;51448;51.660;5.824;2022-07-15T00:35:34;9.32;;;2.80;;
60502;SDS011;51448;51.660;5.824;2022-07-15T00:38:04;10.00;;;2.35;;
60502;SDS011;51448;51.660;5.824;2022-07-15T00:40:46;9.65;;;3.03;;
60502;SDS011;51448;51.660;5.824;2022-07-15T00:43:17;9.32;;;2.67;;
60502;SDS011;51448;51.660;5.824;2022-07-15T00:45:46;10.27;;;2.42;;
60502;SDS011;51448;51.660;5.824;2022-07-15T00:48:14;10.32;;;3.45;;
60502;SDS011;51448;51.660;5.824;2022-07-15T00:50:47;8.50;;;2.70;;
60502;SDS011;51448;51.660;5.824;2022-07-15T00:53:18;9.20;;;2.83;;
60502;SDS011;51448;51.660;5.824;2022-07-15T00:55:49;11.35;;;3.33;;
60502;SDS011;51448;51.660;5.824;2022-07-15T00:58:23;11.77;;;3.58;;
60502;SDS011;51448;51.660;5.824;2022-07-15T01:00:54;8.97;;;2.97;;
60502;SDS011;51448;51.660;5.824;2022-07-15T01:03:25;8.65;;;3.20;;
60502;SDS011;51448;51.660;5.824;2022-07-15T01:05:55;11.80;;;3.00;;
60502;SDS011;51448;51.660;5.824;2022-07-15T01:08:25;10.60;;;2.67;;
60502;SDS011;51448;51.660;5.824;2022-07-15T01:10:53;12.93;;;3.10;;
60502;SDS011;51448;51.660;5.824;2022-07-15T01:13:22;10.25;;;3.15;;
60502;SDS011;51448;51.660;5.824;2022-07-15T01:15:50;8.98;;;3.05;;
60502;SDS011;51448;51.660;5.824;2022-07-15T01:18:18;10.00;;;3.22;;
60502;SDS011;51448;51.660;5.824;2022-07-15T01:20:46;8.70;;;2.72;;
60502;SDS011;51448;51.660;5.824;2022-07-15T01:23:17;8.85;;;2.97;;
60502;SDS011;51448;51.660;5.824;2022-07-15T01:25:52;6.30;;;2.75;;
60502;SDS011;51448;51.660;5.824;2022-07-15T01:28:22;9.93;;;3.30;;
60502;SDS011;51448;51.660;5.824;2022-07-15T01:30:52;10.98;;;2.90;;
60502;SDS011;51448;51.660;5.824;2022-07-15T01:33:20;10.02;;;2.97;;
60502;SDS011;51448;51.660;5.824;2022-07-15T01:35:47;10.93;;;3.30;;
60502;SDS011;51448;51.660;5.824;2022-07-15T01:38:16;11.77;;;3.40;;
60502;SDS011;51448;51.660;5.824;2022-07-15T01:40:47;9.95;;;2.80;;
60502;SDS011;51448;51.660;5.824;2022-07-15T01:43:14;11.07;;;3.10;;
60502;SDS011;51448;51.660;5.824;2022-07-15T01:45:43;9.30;;;3.05;;
60502;SDS011;51448;51.660;5.824;2022-07-15T01:48:18;10.43;;;2.92;;
60502;SDS011;51448;51.660;5.824;2022-07-15T01:51:23;7.97;;;2.95;;
60502;SDS011;51448;51.660;5.824;2022-07-15T01:53:51;8.68;;;2.50;;
60502;SDS011;51448;51.660;5.824;2022-07-15T01:56:18;9.65;;;2.60;;
60502;SDS011;51448;51.660;5.824;2022-07-15T01:58:46;9.57;;;2.90;;
60502;SDS011;51448;51.660;5.824;2022-07-15T02:01:14;8.95;;;2.85;;
60502;SDS011;51448;51.660;5.824;2022-07-15T02:03:44;9.85;;;2.95;;
60502;SDS011;51448;51.660;5.824;2022-07-15T02:06:12;8.82;;;2.67;;
60502;SDS011;51448;51.660;5.824;2022-07-15T02:08:39;6.70;;;2.53;;
60502;SDS011;51448;51.660;5.824;2022-07-15T02:11:11;11.55;;;2.92;;
60502;SDS011;51448;51.660;5.824;2022-07-15T02:13:39;7.15;;;2.50;;
60502;SDS011;51448;51.660;5.824;2022-07-15T02:16:10;12.65;;;2.97;;
60502;SDS011;51448;51.660;5.824;2022-07-15T02:18:39;11.35;;;2.83;;
60502;SDS011;51448;51.660;5.824;2022-07-15T02:21:08;11.50;;;3.17;;
60502;SDS011;51448;51.660;5.824;2022-07-15T02:23:35;11.75;;;3.38;;
60502;SDS011;51448;51.660;5.824;2022-07-15T02:26:03;8.27;;;2.72;;
60502;SDS011;51448;51.660;5.824;2022-07-15T02:28:31;9.02;;;2.75;;
60502;SDS011;51448;51.660;5.824;2022-07-15T02:30:59;9.65;;;2.80;;
60502;SDS011;51448;51.660;5.824;2022-07-15T02:33:26;8.90;;;3.20;;
60502;SDS011;51448;51.660;5.824;2022-07-15T02:35:54;7.88;;;2.60;;
60502;SDS011;51448;51.660;5.824;2022-07-15T02:38:22;9.88;;;2.90;;
60502;SDS011;51448;51.660;5.824;2022-07-15T02:40:50;7.57;;;2.35;;
60502;SDS011;51448;51.660;5.824;2022-07-15T02:43:18;11.18;;;2.50;;
60502;SDS011;51448;51.660;5.824;2022-07-15T02:45:45;8.40;;;2.67;;
60502;SDS011;51448;51.660;5.824;2022-07-15T02:48:17;9.25;;;2.47;;
60502;SDS011;51448;51.660;5.824;2022-07-15T02:50:47;8.07;;;2.45;;
60502;SDS011;51448;51.660;5.824;2022-07-15T02:53:17;10.45;;;3.42;;
60502;SDS011;51448;51.660;5.824;2022-07-15T02:55:47;10.40;;;2.80;;
60502;SDS011;51448;51.660;5.824;2022-07-15T02:58:15;8.13;;;2.95;;
60502;SDS011;51448;51.660;5.824;2022-07-15T03:00:44;7.85;;;3.40;;
60502;SDS011;51448;51.660;5.824;2022-07-15T03:03:11;9.88;;;3.22;;
60502;SDS011;51448;51.660;5.824;2022-07-15T03:05:42;9.32;;;3.83;;
60502;SDS011;51448;51.660;5.824;2022-07-15T03:08:10;10.05;;;3.22;;
60502;SDS011;51448;51.660;5.824;2022-07-15T03:10:40;10.80;;;3.63;;
60502;SDS011;51448;51.660;5.824;2022-07-15T03:13:08;7.32;;;3.25;;
60502;SDS011;51448;51.660;5.824;2022-07-15T03:15:36;11.75;;;3.13;;
60502;SDS011;51448;51.660;5.824;2022-07-15T03:18:04;13.52;;;3.83;;
60502;SDS011;51448;51.660;5.824;2022-07-15T03:20:32;9.48;;;3.20;;
60502;SDS011;51448;51.660;5.824;2022-07-15T03:23:01;11.05;;;3.05;;
60502;SDS011;51448;51.660;5.824;2022-07-15T03:25:32;11.05;;;3.55;;
60502;SDS011;51448;51.660;5.824;2022-07-15T03:28:04;11.10;;;3.58;;
60502;SDS011;51448;51.660;5.824;2022-07-15T03:30:36;10.20;;;3.45;;
60502;SDS011;51448;51.660;5.824;2022-07-15T03:33:04;8.73;;;3.60;;
60502;SDS011;51448;51.660;5.824;2022-07-15T03:35:31;9.43;;;3.55;;
60502;SDS011;51448;51.660;5.824;2022-07-15T03:37:59;8.65;;;3.42;;
60502;SDS011;51448;51.660;5.824;2022-07-15T03:40:27;12.52;;;3.90;;
60502;SDS011;51448;51.660;5.824;2022-07-15T03:42:54;10.65;;;3.65;;
60502;SDS011;51448;51.660;5.824;2022-07-15T03:45:22;11.13;;;3.85;;
60502;SDS011;51448;51.660;5.824;2022-07-15T03:47:51;9.57;;;3.67;;
60502;SDS011;51448;51.660;5.824;2022-07-15T03:50:20;9.05;;;3.38;;
60502;SDS011;51448;51.660;5.824;2022-07-15T03:52:48;9.38;;;3.45;;
60502;SDS011;51448;51.660;5.824;2022-07-15T03:55:16;15.55;;;4.78;;
60502;SDS011;51448;51.660;5.824;2022-07-15T03:57:44;8.85;;;3.92;;
60502;SDS011;51448;51.660;5.824;2022-07-15T04:00:12;9.00;;;3.30;;
60502;SDS011;51448;51.660;5.824;2022-07-15T04:02:41;9.52;;;3.42;;
60502;SDS011;51448;51.660;5.824;2022-07-15T04:05:14;8.90;;;3.70;;
60502;SDS011;51448;51.660;5.824;2022-07-15T04:07:42;14.35;;;3.75;;
60502;SDS011;51448;51.660;5.824;2022-07-15T04:10:09;10.38;;;3.80;;
60502;SDS011;51448;51.660;5.824;2022-07-15T04:12:37;12.10;;;3.72;;
60502;SDS011;51448;51.660;5.824;2022-07-15T04:15:11;9.57;;;3.88;;
60502;SDS011;51448;51.660;5.824;2022-07-15T04:17:43;10.25;;;4.03;;
60502;SDS011;51448;51.660;5.824;2022-07-15T04:20:12;11.43;;;4.28;;
60502;SDS011;51448;51.660;5.824;2022-07-15T04:22:45;13.27;;;4.32;;
60502;SDS011;51448;51.660;5.824;2022-07-15T04:25:17;13.57;;;4.43;;
60502;SDS011;51448;51.660;5.824;2022-07-15T04:27:47;12.82;;;4.03;;
60502;SDS011;51448;51.660;5.824;2022-07-15T04:30:19;12.05;;;4.78;;
60502;SDS011;51448;51.660;5.824;2022-07-15T04:32:48;13.27;;;5.25;;
60502;SDS011;51448;51.660;5.824;2022-07-15T04:35:18;12.82;;;4.68;;
60502;SDS011;51448;51.660;5.824;2022-07-15T04:37:52;14.95;;;4.80;;
60502;SDS011;51448;51.660;5.824;2022-07-15T04:40:21;9.85;;;4.28;;
60502;SDS011;51448;51.660;5.824;2022-07-15T04:42:50;13.15;;;4.93;;
60502;SDS011;51448;51.660;5.824;2022-07-15T04:45:18;11.85;;;5.00;;
60502;SDS011;51448;51.660;5.824;2022-07-15T04:47:46;11.85;;;4.30;;
60502;SDS011;51448;51.660;5.824;2022-07-15T04:50:21;13.13;;;4.70;;
60502;SDS011;51448;51.660;5.824;2022-07-15T04:53:09;13.93;;;4.63;;
60502;SDS011;51448;51.660;5.824;2022-07-15T04:55:37;13.95;;;5.03;;
60502;SDS011;51448;51.660;5.824;2022-07-15T04:58:05;11.30;;;4.60;;
60502;SDS011;51448;51.660;5.824;2022-07-15T05:00:33;11.98;;;4.25;;
60502;SDS011;51448;51.660;5.824;2022-07-15T05:03:01;10.15;;;3.90;;
60502;SDS011;51448;51.660;5.824;2022-07-15T05:05:33;11.65;;;3.88;;
60502;SDS011;51448;51.660;5.824;2022-07-15T05:08:01;13.70;;;4.38;;
60502;SDS011;51448;51.660;5.824;2022-07-15T05:10:39;11.60;;;4.10;;
60502;SDS011;51448;51.660;5.824;2022-07-15T05:13:07;12.02;;;4.20;;
60502;SDS011;51448;51.660;5.824;2022-07-15T05:15:35;11.48;;;4.00;;
60502;SDS011;51448;51.660;5.824;2022-07-15T05:18:12;11.45;;;3.63;;
60502;SDS011;51448;51.660;5.824;2022-07-15T05:20:40;12.55;;;4.35;;
60502;SDS011;51448;51.660;5.824;2022-07-15T05:23:08;10.25;;;4.07;;
60502;SDS011;51448;51.660;5.824;2022-07-15T05:25:41;12.55;;;3.83;;
60502;SDS011;51448;51.660;5.824;2022-07-15T05:28:08;11.07;;;4.15;;
60502;SDS011;51448;51.660;5.824;2022-07-15T05:30:36;10.23;;;3.55;;
60502;SDS011;51448;51.660;5.824;2022-07-15T05:33:06;10.38;;;3.80;;
60502;SDS011;51448;51.660;5.824;2022-07-15T05:35:34;9.85;;;3.78;;
60502;SDS011;51448;51.660;5.824;2022-07-15T05:38:02;11.63;;;3.95;;
60502;SDS011;51448;51.660;5.824;2022-07-15T05:40:33;13.52;;;3.67;;
60502;SDS011;51448;51.660;5.824;2022-07-15T05:43:01;8.82;;;3.72;;
60502;SDS011;51448;51.660;5.824;2022-07-15T05:45:32;10.80;;;3.58;;
60502;SDS011;51448;51.660;5.824;2022-07-15T05:48:05;11.35;;;3.30;;
60502;SDS011;51448;51.660;5.824;2022-07-15T05:50:40;13.05;;;3.28;;
60502;SDS011;51448;51.660;5.824;2022-07-15T05:53:10;8.23;;;2.03;;
60502;SDS011;51448;51.660;5.824;2022-07-15T05:55:38;14.57;;;2.58;;
60502;SDS011;51448;51.660;5.824;2022-07-15T05:58:06;10.90;;;2.00;;
60502;SDS011;51448;51.660;5.824;2022-07-15T06:00:40;6.72;;;1.77;;
60502;SDS011;51448;51.660;5.824;2022-07-15T06:03:08;10.23;;;1.92;;
60502;SDS011;51448;51.660;5.824;2022-07-15T06:05:43;10.68;;;2.25;;
60502;SDS011;51448;51.660;5.824;2022-07-15T06:08:12;8.00;;;1.90;;
60502;SDS011;51448;51.660;5.824;2022-07-15T06:10:43;7.40;;;1.65;;
60502;SDS011;51448;51.660;5.824;2022-07-15T06:13:11;6.45;;;1.60;;
60502;SDS011;51448;51.660;5.824;2022-07-15T06:15:41;8.30;;;2.08;;
60502;SDS011;51448;51.660;5.824;2022-07-15T06:18:14;7.70;;;1.50;;
60502;SDS011;51448;51.660;5.824;2022-07-15T06:20:43;8.18;;;1.77;;
60502;SDS011;51448;51.660;5.824;2022-07-15T06:23:10;6.53;;;1.80;;
60502;SDS011;51448;51.660;5.824;2022-07-15T06:25:38;10.20;;;1.75;;
60502;SDS011;51448;51.660;5.824;2022-07-15T06:28:09;5.78;;;1.67;;
60502;SDS011;51448;51.660;5.824;2022-07-15T06:30:36;7.63;;;2.03;;
60502;SDS011;51448;51.660;5.824;2022-07-15T06:33:05;7.00;;;1.70;;
60502;SDS011;51448;51.660;5.824;2022-07-15T06:35:34;9.68;;;1.92;;
60502;SDS011;51448;51.660;5.824;2022-07-15T06:38:01;8.68;;;1.83;;
60502;SDS011;51448;51.660;5.824;2022-07-15T06:40:29;8.90;;;2.20;;
60502;SDS011;51448;51.660;5.824;2022-07-15T06:42:57;6.68;;;1.60;;
60502;SDS011;51448;51.660;5.824;2022-07-15T06:45:44;10.35;;;2.22;;
60502;SDS011;51448;51.660;5.824;2022-07-15T06:48:11;8.02;;;2.10;;
60502;SDS011;51448;51.660;5.824;2022-07-15T06:50:39;8.77;;;1.98;;
60502;SDS011;51448;51.660;5.824;2022-07-15T06:53:07;8.63;;;2.10;;
60502;SDS011;51448;51.660;5.824;2022-07-15T06:55:35;8.73;;;2.35;;
60502;SDS011;51448;51.660;5.824;2022-07-15T06:58:04;11.18;;;2.47;;
60502;SDS011;51448;51.660;5.824;2022-07-15T07:00:35;8.43;;;2.30;;
60502;SDS011;51448;51.660;5.824;2022-07-15T07:03:02;9.45;;;2.25;;
60502;SDS011;51448;51.660;5.824;2022-07-15T07:05:30;10.63;;;1.95;;
60502;SDS011;51448;51.660;5.824;2022-07-15T07:07:58;10.02;;;1.98;;
60502;SDS011;51448;51.660;5.824;2022-07-15T07:10:25;9.88;;;1.80;;
60502;SDS011;51448;51.660;5.824;2022-07-15T07:12:53;6.82;;;2.00;;
60502;SDS011;51448;51.660;5.824;2022-07-15T07:15:21;9.80;;;1.60;;
60502;SDS011;51448;51.660;5.824;2022-07-15T07:17:51;9.80;;;1.73;;
60502;SDS011;51448;51.660;5.824;2022-07-15T07:20:19;10.00;;;2.08;;
60502;SDS011;51448;51.660;5.824;2022-07-15T07:22:47;10.43;;;1.90;;
60502;SDS011;51448;51.660;5.824;2022-07-15T07:25:14;8.63;;;1.40;;
60502;SDS011;51448;51.660;5.824;2022-07-15T07:27:42;8.80;;;1.25;;
60502;SDS011;51448;51.660;5.824;2022-07-15T07:30:09;7.70;;;1.40;;
60502;SDS011;51448;51.660;5.824;2022-07-15T07:32:37;8.57;;;1.60;;
60502;SDS011;51448;51.660;5.824;2022-07-15T07:35:06;11.15;;;1.80;;
60502;SDS011;51448;51.660;5.824;2022-07-15T07:37:35;8.15;;;1.88;;
60502;SDS011;51448;51.660;5.824;2022-07-15T07:40:05;10.23;;;1.40;;
60502;SDS011;51448;51.660;5.824;2022-07-15T07:42:34;5.40;;;1.30;;
60502;SDS011;51448;51.660;5.824;2022-07-15T07:45:02;8.35;;;1.40;;
60502;SDS011;51448;51.660;5.824;2022-07-15T07:47:32;7.75;;;1.40;;
60502;SDS011;51448;51.660;5.824;2022-07-15T07:50:07;7.40;;;1.35;;
60502;SDS011;51448;51.660;5.824;2022-07-15T07:52:36;7.95;;;1.40;;
60502;SDS011;51448;51.660;5.824;2022-07-15T07:55:04;6.20;;;1.40;;
60502;SDS011;51448;51.660;5.824;2022-07-15T07:57:33;8.18;;;1.40;;
60502;SDS011;51448;51.660;5.824;2022-07-15T08:00:00;6.07;;;1.25;;
60502;SDS011;51448;51.660;5.824;2022-07-15T08:02:38;5.95;;;1.10;;
60502;SDS011;51448;51.660;5.824;2022-07-15T08:05:06;8.38;;;1.70;;
60502;SDS011;51448;51.660;5.824;2022-07-15T08:07:35;7.80;;;1.50;;
60502;SDS011;51448;51.660;5.824;2022-07-15T08:10:03;7.68;;;1.25;;
60502;SDS011;51448;51.660;5.824;2022-07-15T08:12:32;7.30;;;1.27;;
60502;SDS011;51448;51.660;5.824;2022-07-15T08:15:00;6.75;;;1.27;;
60502;SDS011;51448;51.660;5.824;2022-07-15T08:17:28;7.53;;;1.52;;
60502;SDS011;51448;51.660;5.824;2022-07-15T08:19:57;7.45;;;1.42;;
60502;SDS011;51448;51.660;5.824;2022-07-15T08:22:25;7.93;;;1.00;;
60502;SDS011;51448;51.660;5.824;2022-07-15T08:24:53;8.80;;;1.38;;
60502;SDS011;51448;51.660;5.824;2022-07-15T08:27:20;6.88;;;1.73;;
60502;SDS011;51448;51.660;5.824;2022-07-15T08:29:48;6.57;;;1.33;;
60502;SDS011;51448;51.660;5.824;2022-07-15T08:32:16;7.40;;;1.40;;
60502;SDS011;51448;51.660;5.824;2022-07-15T08:34:43;7.93;;;1.60;;
60502;SDS011;51448;51.660;5.824;2022-07-15T08:37:11;9.80;;;1.48;;
60502;SDS011;51448;51.660;5.824;2022-07-15T08:39:38;6.25;;;1.55;;
60502;SDS011;51448;51.660;5.824;2022-07-15T08:42:06;10.48;;;1.70;;
60502;SDS011;51448;51.660;5.824;2022-07-15T08:44:34;5.75;;;1.23;;
60502;SDS011;51448;51.660;5.824;2022-07-15T08:47:03;5.40;;;0.98;;
60502;SDS011;51448;51.660;5.824;2022-07-15T08:49:58;5.40;;;1.17;;
60502;SDS011;51448;51.660;5.824;2022-07-15T08:52:26;5.97;;;1.33;;
60502;SDS011;51448;51.660;5.824;2022-07-15T08:54:57;5.13;;;1.42;;
60502;SDS011;51448;51.660;5.824;2022-07-15T08:57:25;7.78;;;1.50;;
60502;SDS011;51448;51.660;5.824;2022-07-15T08:59:53;5.88;;;1.20;;
60502;SDS011;51448;51.660;5.824;2022-07-15T09:02:21;7.60;;;1.63;;
60502;SDS011;51448;51.660;5.824;2022-07-15T09:10:43;6.03;;;1.35;;
60502;SDS011;51448;51.660;5.824;2022-07-15T09:13:24;7.13;;;1.17;;
60502;SDS011;51448;51.660;5.824;2022-07-15T09:16:02;9.65;;;1.33;;
60502;SDS011;51448;51.660;5.824;2022-07-15T09:18:37;5.82;;;1.17;;
60502;SDS011;51448;51.660;5.824;2022-07-15T09:21:15;9.93;;;1.73;;
60502;SDS011;51448;51.660;5.824;2022-07-15T09:23:44;7.03;;;1.45;;
60502;SDS011;51448;51.660;5.824;2022-07-15T09:29:00;5.55;;;1.25;;
60502;SDS011;51448;51.660;5.824;2022-07-15T09:31:31;5.80;;;1.00;;
60502;SDS011;51448;51.660;5.824;2022-07-15T09:34:21;4.03;;;0.90;;
60502;SDS011;51448;51.660;5.824;2022-07-15T09:36:52;5.80;;;0.97;;
60502;SDS011;51448;51.660;5.824;2022-07-15T09:39:22;5.10;;;0.90;;
60502;SDS011;51448;51.660;5.824;2022-07-15T09:41:52;7.72;;;1.30;;
60502;SDS011;51448;51.660;5.824;2022-07-15T09:44:28;6.53;;;0.93;;
60502;SDS011;51448;51.660;5.824;2022-07-15T09:47:01;4.45;;;0.80;;
60502;SDS011;51448;51.660;5.824;2022-07-15T09:49:31;6.18;;;0.93;;
60502;SDS011;51448;51.660;5.824;2022-07-15T09:52:07;3.65;;;1.30;;
60502;SDS011;51448;51.660;5.824;2022-07-15T09:54:48;4.45;;;0.93;;
60502;SDS011;51448;51.660;5.824;2022-07-15T09:57:17;4.50;;;1.05;;
60502;SDS011;51448;51.660;5.824;2022-07-15T09:59:47;4.05;;;0.75;;
60502;SDS011;51448;51.660;5.824;2022-07-15T10:02:17;5.60;;;0.75;;
60502;SDS011;51448;51.660;5.824;2022-07-15T10:04:45;6.30;;;1.20;;
60502;SDS011;51448;51.660;5.824;2022-07-15T10:07:16;5.65;;;1.10;;
60502;SDS011;51448;51.660;5.824;2022-07-15T10:09:55;5.25;;;1.00;;
60502;SDS011;51448;51.660;5.824;2022-07-15T10:12:40;3.13;;;0.70;;
60502;SDS011;51448;51.660;5.824;2022-07-15T10:21:38;5.55;;;1.13;;
60502;SDS011;51448;51.660;5.824;2022-07-15T10:24:26;6.80;;;1.23;;
60502;SDS011;51448;51.660;5.824;2022-07-15T10:30:08;4.53;;;0.88;;
60502;SDS011;51448;51.660;5.824;2022-07-15T10:35:50;6.05;;;1.05;;
60502;SDS011;51448;51.660;5.824;2022-07-15T10:38:21;3.60;;;0.80;;
60502;SDS011;51448;51.660;5.824;2022-07-15T10:51:41;3.90;;;0.93;;
60502;SDS011;51448;51.660;5.824;2022-07-15T10:56:47;3.33;;;0.95;;
60502;SDS011;51448;51.660;5.824;2022-07-15T10:59:17;5.90;;;0.80;;
60502;SDS011;51448;51.660;5.824;2022-07-15T11:01:48;3.00;;;0.55;;
60502;SDS011;51448;51.660;5.824;2022-07-15T11:04:27;2.78;;;0.52;;
60502;SDS011;51448;51.660;5.824;2022-07-15T11:15:00;5.07;;;0.60;;
60502;SDS011;51448;51.660;5.824;2022-07-15T11:20:00;4.00;;;0.60;;
60502;SDS011;51448;51.660;5.824;2022-07-15T11:22:36;6.72;;;0.85;;
60502;SDS011;51448;51.660;5.824;2022-07-15T11:25:22;5.15;;;1.08;;
60502;SDS011;51448;51.660;5.824;2022-07-15T11:28:01;5.72;;;0.82;;
60502;SDS011;51448;51.660;5.824;2022-07-15T11:30:38;5.43;;;0.80;;
60502;SDS011;51448;51.660;5.824;2022-07-15T11:33:09;3.70;;;0.70;;
60502;SDS011;51448;51.660;5.824;2022-07-15T11:35:54;4.95;;;1.00;;
60502;SDS011;51448;51.660;5.824;2022-07-15T11:38:26;4.45;;;0.60;;
60502;SDS011;51448;51.660;5.824;2022-07-15T11:41:04;3.03;;;0.65;;
60502;SDS011;51448;51.660;5.824;2022-07-15T11:43:58;3.53;;;0.60;;
60502;SDS011;51448;51.660;5.824;2022-07-15T11:46:49;5.10;;;0.80;;
60502;SDS011;51448;51.660;5.824;2022-07-15T11:49:25;3.70;;;0.68;;
60502;SDS011;51448;51.660;5.824;2022-07-15T11:51:59;3.00;;;0.80;;
60502;SDS011;51448;51.660;5.824;2022-07-15T11:54:28;3.67;;;0.60;;
60502;SDS011;51448;51.660;5.824;2022-07-15T11:56:57;3.75;;;0.85;;
60502;SDS011;51448;51.660;5.824;2022-07-15T11:59:27;4.13;;;0.60;;
60502;SDS011;51448;51.660;5.824;2022-07-15T12:02:08;6.75;;;1.02;;
60502;SDS011;51448;51.660;5.824;2022-07-15T12:04:39;4.32;;;0.70;;
60502;SDS011;51448;51.660;5.824;2022-07-15T12:07:09;3.80;;;0.80;;
60502;SDS011;51448;51.660;5.824;2022-07-15T12:09:38;4.38;;;0.80;;
60502;SDS011;51448;51.660;5.824;2022-07-15T12:12:09;3.58;;;0.70;;
60502;SDS011;51448;51.660;5.824;2022-07-15T12:14:37;6.47;;;0.70;;
60502;SDS011;51448;51.660;5.824;2022-07-15T12:17:06;4.07;;;0.93;;
60502;SDS011;51448;51.660;5.824;2022-07-15T12:19:34;3.97;;;0.70;;
60502;SDS011;51448;51.660;5.824;2022-07-15T12:22:07;3.42;;;0.50;;
60502;SDS011;51448;51.660;5.824;2022-07-15T12:24:40;2.90;;;0.80;;
60502;SDS011;51448;51.660;5.824;2022-07-15T12:27:11;2.95;;;0.63;;
60502;SDS011;51448;51.660;5.824;2022-07-15T12:29:40;5.07;;;0.63;;
60502;SDS011;51448;51.660;5.824;2022-07-15T12:32:30;3.22;;;0.75;;
60502;SDS011;51448;51.660;5.824;2022-07-15T12:35:00;5.38;;;0.70;;
60502;SDS011;51448;51.660;5.824;2022-07-15T12:40:06;5.28;;;0.70;;
60502;SDS011;51448;51.660;5.824;2022-07-15T12:42:44;8.80;;;0.95;;
60502;SDS011;51448;51.660;5.824;2022-07-15T12:45:26;5.18;;;1.00;;
60502;SDS011;51448;51.660;5.824;2022-07-15T12:48:06;5.05;;;0.80;;
60502;SDS011;51448;51.660;5.824;2022-07-15T12:53:26;4.60;;;0.73;;
60502;SDS011;51448;51.660;5.824;2022-07-15T12:56:05;5.32;;;0.90;;
60502;SDS011;51448;51.660;5.824;2022-07-15T12:58:33;3.22;;;0.57;;
60502;SDS011;51448;51.660;5.824;2022-07-15T13:01:03;4.70;;;0.80;;
60502;SDS011;51448;51.660;5.824;2022-07-15T13:03:37;2.88;;;0.60;;
60502;SDS011;51448;51.660;5.824;2022-07-15T13:06:07;6.90;;;0.90;;
60502;SDS011;51448;51.660;5.824;2022-07-15T13:08:36;5.75;;;0.70;;
60502;SDS011;51448;51.660;5.824;2022-07-15T13:11:06;7.55;;;0.85;;
60502;SDS011;51448;51.660;5.824;2022-07-15T13:13:36;6.75;;;0.82;;
60502;SDS011;51448;51.660;5.824;2022-07-15T13:16:07;6.82;;;0.70;;
60502;SDS011;51448;51.660;5.824;2022-07-15T13:18:35;7.68;;;0.85;;
60502;SDS011;51448;51.660;5.824;2022-07-15T13:21:04;8.13;;;1.02;;
60502;SDS011;51448;51.660;5.824;2022-07-15T13:23:32;2.83;;;0.70;;
60502;SDS011;51448;51.660;5.824;2022-07-15T13:26:01;3.42;;;0.68;;
60502;SDS011;51448;51.660;5.824;2022-07-15T13:28:28;6.43;;;0.73;;
60502;SDS011;51448;51.660;5.824;2022-07-15T13:30:56;4.82;;;0.90;;
60502;SDS011;51448;51.660;5.824;2022-07-15T13:33:24;4.65;;;0.90;;
60502;SDS011;51448;51.660;5.824;2022-07-15T13:35:51;8.05;;;0.90;;
60502;SDS011;51448;51.660;5.824;2022-07-15T13:38:21;5.47;;;0.57;;
60502;SDS011;51448;51.660;5.824;2022-07-15T13:40:48;6.07;;;0.85;;
60502;SDS011;51448;51.660;5.824;2022-07-15T13:43:16;3.72;;;0.70;;
60502;SDS011;51448;51.660;5.824;2022-07-15T13:45:45;4.22;;;0.75;;
60502;SDS011;51448;51.660;5.824;2022-07-15T13:48:14;3.08;;;0.65;;
60502;SDS011;51448;51.660;5.824;2022-07-15T13:50:42;4.82;;;0.70;;
60502;SDS011;51448;51.660;5.824;2022-07-15T13:53:28;6.03;;;0.63;;
60502;SDS011;51448;51.660;5.824;2022-07-15T13:55:56;6.75;;;0.80;;
60502;SDS011;51448;51.660;5.824;2022-07-15T13:58:23;3.92;;;0.60;;
60502;SDS011;51448;51.660;5.824;2022-07-15T14:00:51;6.60;;;1.05;;
60502;SDS011;51448;51.660;5.824;2022-07-15T14:03:19;3.67;;;0.80;;
60502;SDS011;51448;51.660;5.824;2022-07-15T14:05:46;5.28;;;0.70;;
60502;SDS011;51448;51.660;5.824;2022-07-15T14:08:14;3.65;;;0.70;;
60502;SDS011;51448;51.660;5.824;2022-07-15T14:10:42;4.82;;;0.70;;
60502;SDS011;51448;51.660;5.824;2022-07-15T14:13:09;4.45;;;0.90;;
60502;SDS011;51448;51.660;5.824;2022-07-15T14:15:37;6.15;;;0.80;;
60502;SDS011;51448;51.660;5.824;2022-07-15T14:18:05;5.32;;;0.93;;
60502;SDS011;51448;51.660;5.824;2022-07-15T14:20:34;3.55;;;0.60;;
60502;SDS011;51448;51.660;5.824;2022-07-15T14:23:03;3.97;;;0.63;;
60502;SDS011;51448;51.660;5.824;2022-07-15T14:25:31;3.97;;;0.75;;
60502;SDS011;51448;51.660;5.824;2022-07-15T14:27:58;3.75;;;0.77;;
60502;SDS011;51448;51.660;5.824;2022-07-15T14:30:26;4.63;;;0.90;;
60502;SDS011;51448;51.660;5.824;2022-07-15T14:32:54;2.88;;;0.82;;
60502;SDS011;51448;51.660;5.824;2022-07-15T14:35:23;3.45;;;0.70;;
60502;SDS011;51448;51.660;5.824;2022-07-15T14:37:50;4.57;;;0.85;;
60502;SDS011;51448;51.660;5.824;2022-07-15T14:40:18;5.53;;;0.80;;
60502;SDS011;51448;51.660;5.824;2022-07-15T14:42:48;3.63;;;0.82;;
60502;SDS011;51448;51.660;5.824;2022-07-15T14:45:15;5.72;;;0.90;;
60502;SDS011;51448;51.660;5.824;2022-07-15T14:47:43;2.65;;;0.77;;
60502;SDS011;51448;51.660;5.824;2022-07-15T14:50:10;3.58;;;0.82;;
60502;SDS011;51448;51.660;5.824;2022-07-15T14:52:41;5.47;;;0.93;;
60502;SDS011;51448;51.660;5.824;2022-07-15T14:55:09;4.63;;;0.73;;
60502;SDS011;51448;51.660;5.824;2022-07-15T14:57:36;4.38;;;1.38;;
60502;SDS011;51448;51.660;5.824;2022-07-15T15:00:04;4.88;;;0.88;;
60502;SDS011;51448;51.660;5.824;2022-07-15T15:02:33;5.78;;;1.13;;
60502;SDS011;51448;51.660;5.824;2022-07-15T15:05:00;6.30;;;1.35;;
60502;SDS011;51448;51.660;5.824;2022-07-15T15:07:28;3.80;;;0.95;;
60502;SDS011;51448;51.660;5.824;2022-07-15T15:09:56;4.28;;;1.10;;
60502;SDS011;51448;51.660;5.824;2022-07-15T15:12:23;4.20;;;1.10;;
60502;SDS011;51448;51.660;5.824;2022-07-15T15:14:51;3.50;;;1.00;;
60502;SDS011;51448;51.660;5.824;2022-07-15T15:17:18;5.53;;;1.20;;
60502;SDS011;51448;51.660;5.824;2022-07-15T15:19:46;5.38;;;1.10;;
60502;SDS011;51448;51.660;5.824;2022-07-15T15:22:13;5.65;;;1.25;;
60502;SDS011;51448;51.660;5.824;2022-07-15T15:24:41;5.68;;;1.08;;
60502;SDS011;51448;51.660;5.824;2022-07-15T15:27:09;5.85;;;1.23;;
60502;SDS011;51448;51.660;5.824;2022-07-15T15:29:38;5.97;;;1.30;;
60502;SDS011;51448;51.660;5.824;2022-07-15T15:32:07;4.25;;;1.00;;
60502;SDS011;51448;51.660;5.824;2022-07-15T15:34:39;5.57;;;1.27;;
60502;SDS011;51448;51.660;5.824;2022-07-15T15:37:07;4.80;;;1.27;;
60502;SDS011;51448;51.660;5.824;2022-07-15T15:39:36;8.35;;;1.60;;
60502;SDS011;51448;51.660;5.824;2022-07-15T15:42:05;3.88;;;1.05;;
60502;SDS011;51448;51.660;5.824;2022-07-15T15:44:34;3.65;;;1.10;;
60502;SDS011;51448;51.660;5.824;2022-07-15T15:47:03;3.70;;;1.05;;
60502;SDS011;51448;51.660;5.824;2022-07-15T15:49:31;4.90;;;1.10;;
60502;SDS011;51448;51.660;5.824;2022-07-15T15:51:59;6.68;;;1.10;;